Indianapolis, Indiana
Traffic Map
Current Weather Conditions
Indianapolis, Indiana
Overcast
Overcast
27°
Feels Like: 29°
Wind Chill: 27° Ceiling: 4500
Heat Index: 29° Visibility: 10mi
Dew Point: 22° Wind: 21mph
Humidity: 72% Direction: 220° (SW)
Pressure: 29.88in Gusts: 25mph
Raw Report DataKIND 012054Z 22018G22KT 10SM SCT028 SCT035 BKN045 OVC250 27/22 A2988 RMK AO2 SLP110 T02720217 51002
Traffic Incident Summary
Active as of:
Severity:
Category:
InformationThere was an issue retrieving the traffic information for this location. Please try a different location or try again shortly.
Advertisements
Track Severe Weather on mobile